createdAt,value
2023-04-07T00:01:35.833Z,97791.75
2023-04-07T00:04:02.658Z,97787.97
2023-04-07T00:06:30.967Z,97783.66
2023-04-07T00:08:57.349Z,97788.41
2023-04-07T00:11:23.827Z,97774.53
2023-04-07T00:13:50.263Z,97775.81
2023-04-07T00:16:16.733Z,97773.63
2023-04-07T00:18:43.399Z,97779.97
2023-04-07T00:21:09.851Z,97774.88
2023-04-07T00:23:36.510Z,97776.97
2023-04-07T00:26:02.958Z,97772.13
2023-04-07T00:28:31.283Z,97773.13
2023-04-07T00:30:57.806Z,97773.38
2023-04-07T00:33:24.321Z,97778.91
2023-04-07T00:35:50.787Z,97775.69
2023-04-07T00:38:17.145Z,97772.47
2023-04-07T00:40:43.584Z,97774.53
2023-04-07T00:43:10.345Z,97772.13
2023-04-07T00:45:36.777Z,97774.97
2023-04-07T00:48:03.306Z,97774.19
2023-04-07T00:50:29.695Z,97767.47
2023-04-07T00:52:57.589Z,97771.19
2023-04-07T00:55:24.138Z,97768.97
2023-04-07T00:57:50.584Z,97764.94
2023-04-07T01:00:17.396Z,97766.19
2023-04-07T01:02:44.965Z,97769.06
2023-04-07T01:05:12.048Z,97762.38
2023-04-07T01:07:39.670Z,97755.69
2023-04-07T01:10:06.562Z,97759.38
2023-04-07T01:12:33.127Z,97757.16
2023-04-07T01:14:59.850Z,97750.47
2023-04-07T01:17:27.547Z,97746.41
2023-04-07T01:19:56.090Z,97747.66
2023-04-07T01:22:22.653Z,97750.75
2023-04-07T01:24:49.064Z,97751.00
2023-04-07T01:27:16.632Z,97744.31
2023-04-07T01:29:47.173Z,97751.69
2023-04-07T01:32:13.678Z,97754.78
2023-04-07T01:34:42.416Z,97744.59
2023-04-07T01:37:09.203Z,97746.69
2023-04-07T01:39:38.938Z,97748.97
2023-04-07T01:42:05.339Z,97750.25
2023-04-07T01:44:31.843Z,97745.41
2023-04-07T01:46:58.302Z,97745.63
2023-04-07T01:49:29.047Z,97746.06
2023-04-07T01:51:55.504Z,97735.91
2023-04-07T01:54:21.929Z,97747.78
2023-04-07T01:56:48.465Z,97739.25
2023-04-07T01:59:16.870Z,97741.31
2023-04-07T02:01:46.562Z,97747.88
2023-04-07T02:04:13.255Z,97743.84
2023-04-07T02:06:39.948Z,97745.09
2023-04-07T02:09:06.521Z,97736.78
2023-04-07T02:11:34.306Z,97741.47
2023-04-07T02:14:00.675Z,97741.94
2023-04-07T02:16:27.181Z,97738.69
2023-04-07T02:18:53.631Z,97744.22
2023-04-07T02:21:20.033Z,97739.63
2023-04-07T02:23:46.618Z,97741.69
2023-04-07T02:26:12.943Z,97733.59
2023-04-07T02:28:40.598Z,97735.66
2023-04-07T02:31:07.088Z,97732.41
2023-04-07T02:33:33.550Z,97736.06
2023-04-07T02:35:59.875Z,97733.88
2023-04-07T02:38:28.575Z,97736.97
2023-04-07T02:40:54.981Z,97733.72
2023-04-07T02:43:21.578Z,97732.56
2023-04-07T02:45:51.523Z,97735.44
2023-04-07T02:48:18.217Z,97732.41
2023-04-07T02:50:45.625Z,97732.88
2023-04-07T02:53:12.109Z,97734.91
2023-04-07T02:55:40.815Z,97725.78
2023-04-07T02:58:07.408Z,97731.53
2023-04-07T03:00:34.009Z,97736.25
2023-04-07T03:03:02.846Z,97727.69
2023-04-07T03:05:30.650Z,97731.59
2023-04-07T03:07:57.130Z,97734.69
2023-04-07T03:10:23.802Z,97729.63
2023-04-07T03:12:50.321Z,97729.25
2023-04-07T03:15:18.785Z,97732.09
2023-04-07T03:17:45.570Z,97724.59
2023-04-07T03:20:12.011Z,97725.63
2023-04-07T03:22:38.472Z,97730.34
2023-04-07T03:25:04.813Z,97723.63
2023-04-07T03:27:31.253Z,97717.53
2023-04-07T03:29:57.740Z,97710.22
2023-04-07T03:32:26.624Z,97718.41
2023-04-07T03:34:53.109Z,97717.00
2023-04-07T03:37:19.888Z,97710.31
2023-04-07T03:39:46.392Z,97711.31
2023-04-07T03:42:12.844Z,97711.78
2023-04-07T03:44:41.466Z,97712.81
2023-04-07T03:47:07.935Z,97706.91
2023-04-07T03:49:34.341Z,97711.03
2023-04-07T03:52:01.049Z,97705.13
2023-04-07T03:54:27.698Z,97708.22
2023-04-07T03:56:54.448Z,97707.63
2023-04-07T04:02:05.494Z,97710.94
2023-04-07T04:04:32.120Z,97706.09
2023-04-07T04:07:03.011Z,97710.78
2023-04-07T04:09:32.318Z,97713.66
2023-04-07T04:12:01.340Z,97711.44
2023-04-07T04:14:28.651Z,97712.47
2023-04-07T04:16:55.094Z,97709.22
2023-04-07T04:19:21.492Z,97722.69
2023-04-07T04:21:49.416Z,97712.53
2023-04-07T04:24:15.976Z,97718.06
2023-04-07T04:26:45.850Z,97718.47
2023-04-07T04:29:12.352Z,97711.78
2023-04-07T04:31:46.043Z,97720.94
2023-04-07T04:34:13.825Z,97712.41
2023-04-07T04:36:40.342Z,97718.75
2023-04-07T04:39:06.903Z,97723.44
2023-04-07T04:41:33.383Z,97725.50
2023-04-07T04:43:59.822Z,97723.88
2023-04-07T04:46:27.524Z,97726.75
2023-04-07T04:48:57.724Z,97721.63
2023-04-07T04:51:24.276Z,97722.69
2023-04-07T04:53:51.012Z,97730.84
2023-04-07T04:56:17.902Z,97731.66
2023-04-07T04:58:46.415Z,97731.44
2023-04-07T05:01:13.394Z,97732.22
2023-04-07T05:03:42.238Z,97729.00
2023-04-07T05:06:11.813Z,97734.31
2023-04-07T05:08:42.634Z,97741.75
2023-04-07T05:11:11.579Z,97737.59
2023-04-07T05:13:41.106Z,97734.72
2023-04-07T05:16:08.158Z,97736.00
2023-04-07T05:18:34.891Z,97736.09
2023-04-07T05:21:01.630Z,97738.19
2023-04-07T05:23:28.057Z,97747.06
2023-04-07T05:25:54.978Z,97741.84
2023-04-07T05:28:25.928Z,97745.00
2023-04-07T05:30:52.448Z,97744.72
2023-04-07T05:33:20.853Z,97745.09
2023-04-07T05:35:51.763Z,97744.41
2023-04-07T05:38:21.174Z,97745.78
2023-04-07T05:40:47.775Z,97744.72
2023-04-07T05:43:15.513Z,97746.56
2023-04-07T05:45:44.464Z,97751.28
2023-04-07T05:48:11.264Z,97754.84
2023-04-07T05:50:39.049Z,97757.59
2023-04-07T05:53:23.523Z,97755.13
2023-04-07T05:55:50.644Z,97759.03
2023-04-07T05:58:17.067Z,97749.91
2023-04-07T06:00:43.417Z,97755.31
2023-04-07T06:03:09.964Z,97755.56
2023-04-07T06:05:46.524Z,97761.13
2023-04-07T06:08:13.215Z,97759.69
2023-04-07T06:10:42.220Z,97764.06
2023-04-07T06:13:14.658Z,97762.56
2023-04-07T06:15:41.161Z,97770.41
2023-04-07T06:18:07.606Z,97772.91
2023-04-07T06:20:33.961Z,97785.03
2023-04-07T06:23:00.454Z,97780.63
2023-04-07T06:25:28.183Z,97781.50
2023-04-07T06:27:59.023Z,97782.41
2023-04-07T06:30:25.549Z,97779.06
2023-04-07T06:32:52.036Z,97781.47
2023-04-07T06:35:18.614Z,97782.06
2023-04-07T06:37:45.122Z,97786.41
2023-04-07T06:40:14.807Z,97783.25
2023-04-07T06:42:41.416Z,97785.22
2023-04-07T06:45:08.235Z,97792.22
2023-04-07T06:47:34.825Z,97790.38
2023-04-07T06:50:01.286Z,97793.59
2023-04-07T06:52:31.992Z,97801.66
2023-04-07T06:55:04.499Z,97796.47
2023-04-07T06:57:32.190Z,97800.91
2023-04-07T06:59:58.667Z,97799.00
2023-04-07T07:02:25.307Z,97801.00
2023-04-07T07:04:56.295Z,97799.38
2023-04-07T07:07:22.769Z,97795.78
2023-04-07T07:09:51.610Z,97797.38
2023-04-07T07:12:17.967Z,97800.88
2023-04-07T07:14:45.727Z,97807.44
2023-04-07T07:17:14.479Z,97811.63
2023-04-07T07:19:40.967Z,97823.81
2023-04-07T07:22:08.922Z,97813.53
2023-04-07T07:24:37.892Z,97814.25
2023-04-07T07:27:05.653Z,97811.06
2023-04-07T07:29:32.170Z,97818.09
2023-04-07T07:31:59.221Z,97816.03
2023-04-07T07:34:26.863Z,97813.25
2023-04-07T07:36:53.345Z,97825.44
2023-04-07T07:39:19.816Z,97829.03
2023-04-07T07:41:47.636Z,97821.00
2023-04-07T07:44:14.164Z,97829.06
2023-04-07T07:46:40.727Z,97834.25
2023-04-07T07:49:08.094Z,97831.28
2023-04-07T07:51:35.873Z,97832.59
2023-04-07T07:54:02.399Z,97834.34
2023-04-07T07:56:29.834Z,97838.66
2023-04-07T07:58:58.064Z,97829.25
2023-04-07T08:01:25.020Z,97831.97
2023-04-07T08:03:51.962Z,97835.22
2023-04-07T08:06:18.906Z,97845.44
2023-04-07T08:08:45.397Z,97850.28
2023-04-07T08:11:11.790Z,97859.53
2023-04-07T08:13:39.626Z,97855.75
2023-04-07T08:16:06.303Z,97850.41
2023-04-07T08:18:45.447Z,97845.91
2023-04-07T08:21:11.981Z,97850.19
2023-04-07T08:23:38.565Z,97854.81
2023-04-07T08:26:15.653Z,97837.38
2023-04-07T08:28:41.965Z,97836.81
2023-04-07T08:31:08.552Z,97841.63
2023-04-07T08:33:34.948Z,97850.03
2023-04-07T08:36:02.744Z,97856.22
2023-04-07T08:38:29.204Z,97868.78
2023-04-07T08:40:56.820Z,97854.31
2023-04-07T08:43:24.755Z,97851.34
2023-04-07T08:45:53.605Z,97858.84
2023-04-07T08:48:20.296Z,97847.88
2023-04-07T08:50:46.661Z,97846.50
2023-04-07T08:53:13.213Z,97835.25
2023-04-07T08:55:39.782Z,97843.88
2023-04-07T08:58:06.203Z,97848.69
2023-04-07T09:00:32.524Z,97860.44
2023-04-07T09:02:59.026Z,97855.00
2023-04-07T09:05:25.558Z,97841.69
2023-04-07T09:07:51.995Z,97846.81
2023-04-07T09:10:18.771Z,97838.78
2023-04-07T09:12:45.257Z,97832.06
2023-04-07T09:15:12.933Z,97832.56
2023-04-07T09:17:43.387Z,97852.47
2023-04-07T09:20:09.910Z,97847.63
2023-04-07T09:22:36.531Z,97838.47
2023-04-07T09:25:02.932Z,97841.13
2023-04-07T09:27:29.449Z,97835.22
2023-04-07T09:29:56.136Z,97829.88
2023-04-07T09:32:24.498Z,97837.09
2023-04-07T09:34:51.259Z,97844.09
2023-04-07T09:37:18.909Z,97836.56
2023-04-07T09:39:45.419Z,97829.06
2023-04-07T09:42:11.801Z,97834.16
2023-04-07T09:44:38.202Z,97824.50
2023-04-07T09:47:04.958Z,97822.09
2023-04-07T09:49:31.530Z,97828.78
2023-04-07T09:51:59.255Z,97826.66
2023-04-07T09:54:25.789Z,97828.53
2023-04-07T09:56:52.194Z,97822.38
2023-04-07T09:59:18.753Z,97820.50
2023-04-07T10:01:45.355Z,97828.28
2023-04-07T10:04:13.107Z,97826.38
2023-04-07T10:06:39.556Z,97821.28
2023-04-07T10:09:06.032Z,97825.09
2023-04-07T10:11:32.636Z,97822.66
2023-04-07T10:14:02.087Z,97821.34
2023-04-07T10:16:28.715Z,97824.25
2023-04-07T10:18:55.545Z,97822.13
2023-04-07T10:21:22.128Z,97820.53
2023-04-07T10:23:48.992Z,97827.50
2023-04-07T10:26:15.870Z,97829.91
2023-04-07T10:28:42.974Z,97830.44
2023-04-07T10:31:10.821Z,97836.34
2023-04-07T10:33:37.424Z,97834.75
2023-04-07T10:36:04.138Z,97819.44
2023-04-07T10:38:30.730Z,97826.97
2023-04-07T10:40:57.595Z,97831.53
2023-04-07T10:43:25.156Z,97828.03
2023-04-07T10:45:51.848Z,97827.22
2023-04-07T10:48:18.452Z,97827.50
2023-04-07T10:50:44.950Z,97838.22
2023-04-07T10:53:11.318Z,97829.38
2023-04-07T10:55:48.172Z,97825.09
2023-04-07T10:58:14.612Z,97829.13
2023-04-07T11:00:42.134Z,97828.84
2023-04-07T11:03:08.716Z,97832.59
2023-04-07T11:05:35.381Z,97835.03
2023-04-07T11:08:01.808Z,97824.03
2023-04-07T11:10:28.235Z,97818.38
2023-04-07T11:12:54.771Z,97818.91
2023-04-07T11:15:21.366Z,97821.63
2023-04-07T11:17:47.944Z,97819.19
2023-04-07T11:20:14.281Z,97819.16
2023-04-07T11:22:40.761Z,97827.50
2023-04-07T11:25:07.280Z,97827.75
2023-04-07T11:27:36.026Z,97822.94
2023-04-07T11:30:02.576Z,97819.44
2023-04-07T11:32:29.042Z,97817.56
2023-04-07T11:34:57.644Z,97815.44
2023-04-07T11:37:28.502Z,97819.72
2023-04-07T11:39:54.930Z,97816.47
2023-04-07T11:42:22.685Z,97810.56
2023-04-07T11:44:51.543Z,97820.25
2023-04-07T11:47:17.907Z,97826.44
2023-04-07T11:49:46.772Z,97825.63
2023-04-07T11:52:13.515Z,97815.72
2023-04-07T11:54:40.194Z,97816.50
2023-04-07T11:57:08.504Z,97809.81
2023-04-07T11:59:38.926Z,97818.09
2023-04-07T12:02:05.709Z,97817.03
2023-04-07T12:04:32.302Z,97813.22
2023-04-07T12:07:01.077Z,97822.63
2023-04-07T12:09:27.507Z,97827.72
2023-04-07T12:11:53.975Z,97817.81
2023-04-07T12:14:20.520Z,97822.41
2023-04-07T12:16:49.981Z,97820.53
2023-04-07T12:19:17.750Z,97821.31
2023-04-07T12:21:44.460Z,97816.50
2023-04-07T12:24:10.990Z,97824.81
2023-04-07T12:26:38.560Z,97821.31
2023-04-07T12:29:05.000Z,97823.22
2023-04-07T12:31:31.732Z,97814.88
2023-04-07T12:33:58.659Z,97816.72
2023-04-07T12:36:25.045Z,97807.31
2023-04-07T12:38:51.552Z,97815.66
2023-04-07T12:41:19.135Z,97817.53
2023-04-07T12:43:47.233Z,97814.31
2023-04-07T12:46:20.223Z,97815.91
2023-04-07T12:48:47.002Z,97822.09
2023-04-07T12:51:14.633Z,97815.09
2023-04-07T12:53:41.216Z,97821.28
2023-04-07T12:56:11.630Z,97819.13
2023-04-07T12:58:38.129Z,97816.47
2023-04-07T13:01:06.905Z,97821.81
2023-04-07T13:03:36.268Z,97824.22
2023-04-07T13:06:03.144Z,97818.06
2023-04-07T13:11:23.424Z,97812.97
2023-04-07T13:13:53.679Z,97815.91
2023-04-07T13:16:27.094Z,97825.28
2023-04-07T13:18:53.828Z,97822.59
2023-04-07T13:21:44.261Z,97819.63
2023-04-07T13:24:09.129Z,97829.31
2023-04-07T13:26:35.639Z,97815.91
2023-04-07T13:29:02.297Z,97812.41
2023-04-07T13:31:28.866Z,97816.72
2023-04-07T13:33:55.507Z,97814.03
2023-04-07T13:36:23.092Z,97806.25
2023-04-07T13:38:51.781Z,97809.47
2023-04-07T13:41:18.105Z,97816.97
2023-04-07T13:43:44.693Z,97819.13
2023-04-07T13:46:20.773Z,97809.19
2023-04-07T13:48:51.148Z,97815.63
2023-04-07T13:51:17.394Z,97815.91
2023-04-07T13:53:43.607Z,97810.81
2023-04-07T13:56:09.809Z,97812.66
2023-04-07T13:58:36.396Z,97816.41
2023-04-07T14:01:02.631Z,97813.22
2023-04-07T14:03:28.963Z,97808.91
2023-04-07T14:05:55.346Z,97810.78
2023-04-07T14:08:21.549Z,97814.53
2023-04-07T14:10:48.074Z,97812.13
2023-04-07T14:13:14.354Z,97810.50
2023-04-07T14:15:40.600Z,97810.50
2023-04-07T14:18:07.404Z,97808.91
2023-04-07T14:20:33.675Z,97807.28
2023-04-07T14:22:59.878Z,97806.75
2023-04-07T14:25:26.531Z,97805.94
2023-04-07T14:27:52.756Z,97815.06
2023-04-07T14:30:19.546Z,97811.56
2023-04-07T14:32:45.876Z,97809.94
2023-04-07T14:35:12.199Z,97808.34
2023-04-07T14:37:38.419Z,97804.06
2023-04-07T14:40:05.017Z,97815.84
2023-04-07T14:42:31.291Z,97817.97
2023-04-07T14:44:57.553Z,97811.81
2023-04-07T14:47:23.892Z,97816.38
2023-04-07T14:49:51.945Z,97815.81
2023-04-07T14:52:19.756Z,97814.22
2023-04-07T14:54:46.099Z,97815.28
2023-04-07T14:57:12.282Z,97815.28
2023-04-07T14:59:40.653Z,97822.75
2023-04-07T15:02:06.970Z,97820.91
2023-04-07T15:04:33.502Z,97820.63
2023-04-07T15:06:59.970Z,97826.00
2023-04-07T15:09:26.289Z,97820.63
2023-04-07T15:11:52.645Z,97824.41
2023-04-07T15:14:18.834Z,97825.22
2023-04-07T15:16:45.246Z,97825.22
2023-04-07T15:19:11.440Z,97827.06
2023-04-07T15:21:37.625Z,97825.44
2023-04-07T15:24:04.007Z,97826.25
2023-04-07T15:26:30.210Z,97823.84
2023-04-07T15:28:59.481Z,97824.94
2023-04-07T15:31:25.858Z,97825.97
2023-04-07T15:33:52.420Z,97829.75
2023-04-07T15:36:18.648Z,97832.41
2023-04-07T15:38:44.906Z,97830.78
2023-04-07T15:41:11.162Z,97828.38
2023-04-07T15:43:37.591Z,97820.59
2023-04-07T15:46:03.800Z,97831.31
2023-04-07T15:48:30.294Z,97828.91
2023-04-07T15:50:56.547Z,97829.97
2023-04-07T15:53:23.307Z,97829.19
2023-04-07T15:55:49.507Z,97831.84
2023-04-07T15:58:15.728Z,97830.22
2023-04-07T16:00:41.919Z,97834.81
2023-04-07T16:03:08.421Z,97827.81
2023-04-07T16:05:34.772Z,97836.94
2023-04-07T16:08:01.154Z,97838.81
2023-04-07T16:10:27.495Z,97844.66
2023-04-07T16:12:53.717Z,97840.09
2023-04-07T16:15:32.410Z,97841.16
2023-04-07T16:18:05.565Z,97848.66
2023-04-07T16:20:31.996Z,97847.84
2023-04-07T16:22:58.192Z,97851.59
2023-04-07T16:25:24.482Z,97851.84
2023-04-07T16:27:50.852Z,97858.25
2023-04-07T16:30:17.126Z,97855.84
2023-04-07T16:32:43.512Z,97859.59
2023-04-07T16:35:10.098Z,97855.34
2023-04-07T16:37:39.459Z,97855.56
2023-04-07T16:40:06.090Z,97860.13
2023-04-07T16:42:33.547Z,97870.31
2023-04-07T16:45:00.231Z,97868.94
2023-04-07T16:47:26.873Z,97869.19
2023-04-07T16:49:53.492Z,97876.41
2023-04-07T16:52:21.183Z,97878.56
2023-04-07T16:54:47.760Z,97884.97
2023-04-07T16:57:14.434Z,97889.53
2023-04-07T16:59:42.885Z,97890.59
2023-04-07T17:02:09.688Z,97885.75
2023-04-07T17:04:36.377Z,97894.84
2023-04-07T17:07:03.140Z,97907.69
2023-04-07T17:09:31.964Z,97899.13
2023-04-07T17:12:03.992Z,97905.53
2023-04-07T17:14:30.546Z,97904.19
2023-04-07T17:16:59.612Z,97917.81
2023-04-07T17:19:26.235Z,97921.56
2023-04-07T17:21:52.629Z,97919.41
2023-04-07T17:24:21.454Z,97926.63
2023-04-07T17:26:49.951Z,97925.28
2023-04-07T17:29:16.473Z,97931.69
2023-04-07T17:31:43.075Z,97929.53
2023-04-07T17:34:09.494Z,97930.56
2023-04-07T17:36:38.957Z,97935.63
2023-04-07T17:39:07.677Z,97933.22
2023-04-07T17:41:34.114Z,97938.00
2023-04-07T17:44:00.727Z,97946.56
2023-04-07T17:46:27.257Z,97949.50
2023-04-07T17:48:53.676Z,97948.94
2023-04-07T17:51:20.200Z,97956.41
2023-04-07T17:53:50.139Z,97955.84
2023-04-07T17:56:16.928Z,97953.69
2023-04-07T17:58:44.909Z,97961.16
2023-04-07T18:01:12.987Z,97964.34
2023-04-07T18:03:42.359Z,97963.00
2023-04-07T18:06:08.997Z,97972.91
2023-04-07T18:08:37.301Z,97973.41
2023-04-07T18:11:07.103Z,97967.47
2023-04-07T18:13:33.786Z,97967.94
2023-04-07T18:16:00.353Z,97980.81
2023-04-07T18:18:28.401Z,97974.88
2023-04-07T18:20:54.814Z,97984.22
2023-04-07T18:23:21.236Z,97985.53
2023-04-07T18:25:49.005Z,97990.34
2023-04-07T18:28:15.357Z,97988.97
2023-04-07T18:30:41.798Z,97995.38
2023-04-07T18:33:10.837Z,97993.22
2023-04-07T18:35:38.841Z,98001.47
2023-04-07T18:38:05.403Z,98002.78
2023-04-07T18:40:31.886Z,98009.19
2023-04-07T18:42:58.371Z,98000.22
2023-04-07T18:45:24.969Z,98017.97
2023-04-07T18:47:51.431Z,98020.34
2023-04-07T18:50:17.942Z,98025.13
2023-04-07T18:52:44.529Z,98028.03
2023-04-07T18:55:11.188Z,98036.56
2023-04-07T18:57:44.849Z,98042.97
2023-04-07T19:00:13.450Z,98049.63
2023-04-07T19:02:40.581Z,98050.66
2023-04-07T19:05:07.357Z,98049.31
2023-04-07T19:07:35.186Z,98053.03
2023-04-07T19:10:02.858Z,98058.63
2023-04-07T19:12:29.224Z,98061.56
2023-04-07T19:14:55.712Z,98062.88
2023-04-07T19:17:23.288Z,98063.09
2023-04-07T19:19:50.077Z,98066.03
2023-04-07T19:22:20.889Z,98075.09
2023-04-07T19:24:49.880Z,98071.88
2023-04-07T19:27:16.240Z,98078.28
2023-04-07T19:29:44.489Z,98074.22
2023-04-07T19:32:14.295Z,98075.50
2023-04-07T19:34:40.697Z,98073.09
2023-04-07T19:37:08.461Z,98083.78
2023-04-07T19:39:35.224Z,98079.75
2023-04-07T19:42:04.304Z,98086.13
2023-04-07T19:44:30.771Z,98090.91
2023-04-07T19:47:00.897Z,98091.97
2023-04-07T19:49:27.611Z,98091.41
2023-04-07T19:51:53.982Z,98094.34
2023-04-07T19:54:20.430Z,98097.50
2023-04-07T19:56:46.894Z,98102.84
2023-04-07T19:59:15.555Z,98098.78
2023-04-07T20:01:42.653Z,98103.56
2023-04-07T20:04:09.341Z,98109.94
2023-04-07T20:06:35.846Z,98111.00
2023-04-07T20:09:03.550Z,98117.63
2023-04-07T20:11:33.187Z,98114.38
2023-04-07T20:14:01.766Z,98116.50
2023-04-07T20:16:31.017Z,98116.75
2023-04-07T20:18:57.573Z,98118.84
2023-04-07T20:21:24.896Z,98123.63
2023-04-07T20:23:51.420Z,98126.28
2023-04-07T20:26:17.835Z,98118.75
2023-04-07T20:28:44.321Z,98123.28
2023-04-07T20:31:10.732Z,98115.53
2023-04-07T20:33:41.992Z,98122.97
2023-04-07T20:36:08.660Z,98132.03
2023-04-07T20:38:35.334Z,98134.13
2023-04-07T20:41:01.736Z,98129.03
2023-04-07T20:43:28.241Z,98133.81
2023-04-07T20:45:55.793Z,98141.25
2023-04-07T20:48:22.186Z,98144.16
2023-04-07T20:50:48.588Z,98144.41
2023-04-07T20:53:15.189Z,98145.47
2023-04-07T20:55:41.697Z,98148.41
2023-04-07T20:58:09.451Z,98150.50
2023-04-07T21:00:35.983Z,98151.78
2023-04-07T21:03:02.453Z,98155.50
2023-04-07T21:05:29.141Z,98159.44
2023-04-07T21:07:57.191Z,98160.50
2023-04-07T21:10:23.757Z,98170.63
2023-04-07T21:12:50.593Z,98165.53
2023-04-07T21:15:17.089Z,98172.13
2023-04-07T21:17:43.795Z,98167.88
2023-04-07T21:20:10.284Z,98165.44
2023-04-07T21:22:37.748Z,98173.66
2023-04-07T21:25:04.176Z,98168.56
2023-04-07T21:27:30.613Z,98170.69
2023-04-07T21:29:57.142Z,98166.63
2023-04-07T21:32:24.071Z,98171.13
2023-04-07T21:34:50.671Z,98168.72
2023-04-07T21:37:17.161Z,98170.81
2023-04-07T21:39:45.757Z,98171.88
2023-04-07T21:42:13.379Z,98165.97
2023-04-07T21:44:39.860Z,98176.06
2023-04-07T21:47:06.363Z,98177.13
2023-04-07T21:49:34.303Z,98175.47
2023-04-07T21:52:00.755Z,98173.06
2023-04-07T21:54:27.425Z,98170.63
2023-04-07T21:56:53.892Z,98163.34
2023-04-07T21:59:21.380Z,98179.34
2023-04-07T22:01:49.126Z,98175.28
2023-04-07T22:04:17.026Z,98175.28
2023-04-07T22:06:45.610Z,98179.03
2023-04-07T22:09:12.011Z,98182.72
2023-04-07T22:11:38.416Z,98174.13
2023-04-07T22:14:04.821Z,98177.88
2023-04-07T22:16:32.957Z,98178.09
2023-04-07T22:18:59.468Z,98181.00
2023-04-07T22:21:25.780Z,98187.34
2023-04-07T22:23:52.203Z,98185.75
2023-04-07T22:26:18.715Z,98185.97
2023-04-07T22:28:45.378Z,98196.91
2023-04-07T22:31:12.047Z,98191.56
2023-04-07T22:33:38.644Z,98198.97
2023-04-07T22:36:05.249Z,98190.16
2023-04-07T22:38:34.394Z,98195.97
2023-04-07T22:41:00.784Z,98206.41
2023-04-07T22:43:27.219Z,98205.81
2023-04-07T22:46:00.208Z,98199.91
2023-04-07T22:48:28.325Z,98199.09
2023-04-07T22:50:56.212Z,98207.34
2023-04-07T22:53:22.677Z,98202.47
2023-04-07T22:55:49.431Z,98208.63
2023-04-07T22:58:15.818Z,98206.19
2023-04-07T23:00:42.447Z,98206.41
2023-04-07T23:03:09.051Z,98213.63
2023-04-07T23:05:35.776Z,98213.88
2023-04-07T23:08:02.290Z,98220.00
2023-04-07T23:10:29.968Z,98217.78
2023-04-07T23:12:56.422Z,98217.78
2023-04-07T23:15:23.064Z,98218.84
2023-04-07T23:17:52.340Z,98221.75
2023-04-07T23:20:21.363Z,98223.84
2023-04-07T23:22:47.956Z,98224.88
2023-04-07T23:25:22.059Z,98226.75
2023-04-07T23:27:48.648Z,98227.78
2023-04-07T23:30:15.202Z,98224.28
2023-04-07T23:32:43.169Z,98224.53
2023-04-07T23:35:09.704Z,98226.59
2023-04-07T23:37:36.147Z,98231.16
2023-04-07T23:40:02.877Z,98229.50
2023-04-07T23:42:30.515Z,98223.41
2023-04-07T23:44:57.005Z,98226.28
2023-04-07T23:47:23.624Z,98223.84
2023-04-07T23:49:50.383Z,98221.16
2023-04-07T23:52:17.021Z,98217.72
2023-04-07T23:54:43.441Z,98217.13
2023-04-07T23:57:09.943Z,98214.47
2023-04-07T23:59:36.476Z,98221.66
